sensor_id;sensor_type;location;lat;lon;timestamp;P1;durP1;ratioP1;P2;durP2;ratioP2
6177;SDS011;3122;48.208;11.174;2024-02-14T00:04:24;7.37;;;4.80;;
6177;SDS011;3122;48.208;11.174;2024-02-14T00:09:24;5.33;;;4.80;;
6177;SDS011;3122;48.208;11.174;2024-02-14T00:14:25;7.30;;;4.80;;
6177;SDS011;3122;48.208;11.174;2024-02-14T00:19:26;8.30;;;5.10;;
6177;SDS011;3122;48.208;11.174;2024-02-14T00:24:26;11.20;;;5.83;;
6177;SDS011;3122;48.208;11.174;2024-02-14T00:29:29;13.57;;;6.70;;
6177;SDS011;3122;48.208;11.174;2024-02-14T00:34:30;12.23;;;7.30;;
6177;SDS011;3122;48.208;11.174;2024-02-14T00:39:30;9.60;;;6.90;;
6177;SDS011;3122;48.208;11.174;2024-02-14T00:44:31;9.00;;;5.83;;
6177;SDS011;3122;48.208;11.174;2024-02-14T00:49:34;7.23;;;5.50;;
6177;SDS011;3122;48.208;11.174;2024-02-14T00:54:35;8.87;;;5.57;;
6177;SDS011;3122;48.208;11.174;2024-02-14T00:59:35;11.27;;;6.50;;
6177;SDS011;3122;48.208;11.174;2024-02-14T01:04:36;7.30;;;5.47;;
6177;SDS011;3122;48.208;11.174;2024-02-14T01:09:37;7.43;;;5.03;;
6177;SDS011;3122;48.208;11.174;2024-02-14T01:14:37;5.27;;;3.50;;
6177;SDS011;3122;48.208;11.174;2024-02-14T01:19:38;4.00;;;3.23;;
6177;SDS011;3122;48.208;11.174;2024-02-14T01:24:38;4.50;;;3.53;;
6177;SDS011;3122;48.208;11.174;2024-02-14T01:29:39;6.07;;;2.70;;
6177;SDS011;3122;48.208;11.174;2024-02-14T01:34:39;5.73;;;3.90;;
6177;SDS011;3122;48.208;11.174;2024-02-14T01:39:42;5.47;;;3.60;;
6177;SDS011;3122;48.208;11.174;2024-02-14T01:44:42;3.90;;;3.20;;
6177;SDS011;3122;48.208;11.174;2024-02-14T01:49:43;4.00;;;2.93;;
6177;SDS011;3122;48.208;11.174;2024-02-14T01:54:44;3.73;;;2.97;;
6177;SDS011;3122;48.208;11.174;2024-02-14T01:59:45;3.70;;;3.13;;
6177;SDS011;3122;48.208;11.174;2024-02-14T02:04:46;3.40;;;3.10;;
6177;SDS011;3122;48.208;11.174;2024-02-14T02:09:47;3.33;;;2.80;;
6177;SDS011;3122;48.208;11.174;2024-02-14T02:14:47;5.00;;;3.37;;
6177;SDS011;3122;48.208;11.174;2024-02-14T02:19:48;3.90;;;3.10;;
6177;SDS011;3122;48.208;11.174;2024-02-14T02:24:48;3.20;;;2.90;;
6177;SDS011;3122;48.208;11.174;2024-02-14T02:29:50;3.80;;;2.70;;
6177;SDS011;3122;48.208;11.174;2024-02-14T02:34:51;3.50;;;3.07;;
6177;SDS011;3122;48.208;11.174;2024-02-14T02:39:51;3.87;;;3.17;;
6177;SDS011;3122;48.208;11.174;2024-02-14T02:44:52;3.80;;;2.90;;
6177;SDS011;3122;48.208;11.174;2024-02-14T02:49:53;2.90;;;2.70;;
6177;SDS011;3122;48.208;11.174;2024-02-14T02:54:53;6.30;;;2.87;;
6177;SDS011;3122;48.208;11.174;2024-02-14T02:59:54;3.17;;;2.70;;
6177;SDS011;3122;48.208;11.174;2024-02-14T03:04:55;3.20;;;2.90;;
6177;SDS011;3122;48.208;11.174;2024-02-14T03:09:55;2.93;;;2.60;;
6177;SDS011;3122;48.208;11.174;2024-02-14T03:14:56;5.23;;;3.70;;
6177;SDS011;3122;48.208;11.174;2024-02-14T03:19:58;8.07;;;3.57;;
6177;SDS011;3122;48.208;11.174;2024-02-14T03:24:58;7.00;;;3.00;;
6177;SDS011;3122;48.208;11.174;2024-02-14T03:29:59;3.47;;;2.97;;
6177;SDS011;3122;48.208;11.174;2024-02-14T03:35:00;4.90;;;3.07;;
6177;SDS011;3122;48.208;11.174;2024-02-14T03:40:01;3.10;;;2.73;;
6177;SDS011;3122;48.208;11.174;2024-02-14T03:45:04;2.70;;;2.27;;
6177;SDS011;3122;48.208;11.174;2024-02-14T03:50:06;2.60;;;2.40;;
6177;SDS011;3122;48.208;11.174;2024-02-14T03:55:07;3.47;;;2.57;;
6177;SDS011;3122;48.208;11.174;2024-02-14T04:00:09;2.67;;;2.00;;
6177;SDS011;3122;48.208;11.174;2024-02-14T04:05:10;2.10;;;2.00;;
6177;SDS011;3122;48.208;11.174;2024-02-14T04:10:10;4.17;;;2.47;;
6177;SDS011;3122;48.208;11.174;2024-02-14T04:15:11;2.47;;;2.00;;
6177;SDS011;3122;48.208;11.174;2024-02-14T04:20:12;3.83;;;2.83;;
6177;SDS011;3122;48.208;11.174;2024-02-14T04:25:13;5.97;;;2.90;;
6177;SDS011;3122;48.208;11.174;2024-02-14T04:30:13;3.20;;;2.73;;
6177;SDS011;3122;48.208;11.174;2024-02-14T04:35:14;3.37;;;2.87;;
6177;SDS011;3122;48.208;11.174;2024-02-14T04:40:15;4.10;;;2.80;;
6177;SDS011;3122;48.208;11.174;2024-02-14T04:45:15;2.43;;;2.23;;
6177;SDS011;3122;48.208;11.174;2024-02-14T04:50:16;2.10;;;1.90;;
6177;SDS011;3122;48.208;11.174;2024-02-14T04:55:16;3.03;;;1.67;;
6177;SDS011;3122;48.208;11.174;2024-02-14T05:00:17;2.00;;;1.90;;
6177;SDS011;3122;48.208;11.174;2024-02-14T05:05:19;1.80;;;1.70;;
6177;SDS011;3122;48.208;11.174;2024-02-14T05:10:20;2.90;;;2.60;;
6177;SDS011;3122;48.208;11.174;2024-02-14T05:15:21;3.07;;;2.63;;
6177;SDS011;3122;48.208;11.174;2024-02-14T05:20:21;2.30;;;2.10;;
6177;SDS011;3122;48.208;11.174;2024-02-14T05:25:22;1.90;;;1.80;;
6177;SDS011;3122;48.208;11.174;2024-02-14T05:30:22;6.20;;;1.87;;
6177;SDS011;3122;48.208;11.174;2024-02-14T05:35:23;2.07;;;1.70;;
6177;SDS011;3122;48.208;11.174;2024-02-14T05:40:23;2.13;;;1.90;;
6177;SDS011;3122;48.208;11.174;2024-02-14T05:45:24;1.93;;;1.83;;
6177;SDS011;3122;48.208;11.174;2024-02-14T05:50:25;2.60;;;1.90;;
6177;SDS011;3122;48.208;11.174;2024-02-14T05:55:25;1.80;;;1.70;;
6177;SDS011;3122;48.208;11.174;2024-02-14T06:00:26;1.80;;;1.70;;
6177;SDS011;3122;48.208;11.174;2024-02-14T06:05:26;3.43;;;2.00;;
6177;SDS011;3122;48.208;11.174;2024-02-14T06:10:27;2.60;;;2.30;;
6177;SDS011;3122;48.208;11.174;2024-02-14T06:15:28;2.30;;;1.97;;
6177;SDS011;3122;48.208;11.174;2024-02-14T06:20:28;2.60;;;2.13;;
6177;SDS011;3122;48.208;11.174;2024-02-14T06:25:29;4.60;;;2.60;;
6177;SDS011;3122;48.208;11.174;2024-02-14T06:30:30;6.03;;;5.07;;
6177;SDS011;3122;48.208;11.174;2024-02-14T06:35:30;4.43;;;3.73;;
6177;SDS011;3122;48.208;11.174;2024-02-14T06:40:31;6.63;;;2.87;;
6177;SDS011;3122;48.208;11.174;2024-02-14T06:45:32;3.60;;;2.50;;
6177;SDS011;3122;48.208;11.174;2024-02-14T06:50:32;2.97;;;2.40;;
6177;SDS011;3122;48.208;11.174;2024-02-14T06:55:33;2.80;;;2.10;;
6177;SDS011;3122;48.208;11.174;2024-02-14T07:00:33;7.20;;;3.27;;
6177;SDS011;3122;48.208;11.174;2024-02-14T07:05:34;2.30;;;2.20;;
6177;SDS011;3122;48.208;11.174;2024-02-14T07:10:34;3.90;;;2.40;;
6177;SDS011;3122;48.208;11.174;2024-02-14T07:15:35;2.70;;;2.20;;
6177;SDS011;3122;48.208;11.174;2024-02-14T07:20:36;2.53;;;1.70;;
6177;SDS011;3122;48.208;11.174;2024-02-14T07:25:36;3.43;;;2.33;;
6177;SDS011;3122;48.208;11.174;2024-02-14T07:30:37;2.70;;;2.20;;
6177;SDS011;3122;48.208;11.174;2024-02-14T07:35:38;5.60;;;2.07;;
6177;SDS011;3122;48.208;11.174;2024-02-14T07:40:38;4.17;;;2.13;;
6177;SDS011;3122;48.208;11.174;2024-02-14T07:45:39;6.20;;;2.80;;
6177;SDS011;3122;48.208;11.174;2024-02-14T07:50:40;4.63;;;2.60;;
6177;SDS011;3122;48.208;11.174;2024-02-14T07:55:40;3.13;;;2.63;;
6177;SDS011;3122;48.208;11.174;2024-02-14T08:00:41;2.60;;;2.30;;
6177;SDS011;3122;48.208;11.174;2024-02-14T08:05:42;3.83;;;2.23;;
6177;SDS011;3122;48.208;11.174;2024-02-14T08:10:42;2.40;;;2.20;;
6177;SDS011;3122;48.208;11.174;2024-02-14T08:15:43;2.00;;;1.90;;
6177;SDS011;3122;48.208;11.174;2024-02-14T08:20:43;2.73;;;2.37;;
6177;SDS011;3122;48.208;11.174;2024-02-14T08:25:44;4.93;;;2.27;;
6177;SDS011;3122;48.208;11.174;2024-02-14T08:30:44;6.30;;;2.73;;
6177;SDS011;3122;48.208;11.174;2024-02-14T08:35:45;4.70;;;2.17;;
6177;SDS011;3122;48.208;11.174;2024-02-14T08:40:47;2.60;;;2.20;;
6177;SDS011;3122;48.208;11.174;2024-02-14T08:45:47;2.70;;;2.00;;
6177;SDS011;3122;48.208;11.174;2024-02-14T08:50:48;2.03;;;1.83;;
6177;SDS011;3122;48.208;11.174;2024-02-14T08:55:49;2.70;;;2.20;;
6177;SDS011;3122;48.208;11.174;2024-02-14T09:00:49;1.73;;;1.63;;
6177;SDS011;3122;48.208;11.174;2024-02-14T09:05:51;2.40;;;1.80;;
6177;SDS011;3122;48.208;11.174;2024-02-14T09:10:53;2.53;;;1.97;;
6177;SDS011;3122;48.208;11.174;2024-02-14T09:15:55;1.93;;;1.40;;
6177;SDS011;3122;48.208;11.174;2024-02-14T09:20:56;2.97;;;1.60;;
6177;SDS011;3122;48.208;11.174;2024-02-14T09:25:56;3.00;;;1.37;;
6177;SDS011;3122;48.208;11.174;2024-02-14T09:30:58;3.50;;;2.00;;
6177;SDS011;3122;48.208;11.174;2024-02-14T09:35:58;2.30;;;1.70;;
6177;SDS011;3122;48.208;11.174;2024-02-14T09:41:06;2.23;;;1.57;;
6177;SDS011;3122;48.208;11.174;2024-02-14T09:46:15;1.57;;;1.20;;
6177;SDS011;3122;48.208;11.174;2024-02-14T09:51:16;1.67;;;1.57;;
6177;SDS011;3122;48.208;11.174;2024-02-14T09:56:17;3.07;;;1.67;;
6177;SDS011;3122;48.208;11.174;2024-02-14T10:01:25;3.60;;;1.30;;
6177;SDS011;3122;48.208;11.174;2024-02-14T10:06:26;2.07;;;1.87;;
6177;SDS011;3122;48.208;11.174;2024-02-14T10:11:27;2.13;;;1.50;;
6177;SDS011;3122;48.208;11.174;2024-02-14T10:16:28;2.30;;;1.37;;
6177;SDS011;3122;48.208;11.174;2024-02-14T10:21:29;2.27;;;1.60;;
6177;SDS011;3122;48.208;11.174;2024-02-14T10:26:33;4.20;;;3.30;;
6177;SDS011;3122;48.208;11.174;2024-02-14T10:31:33;1.63;;;1.53;;
6177;SDS011;3122;48.208;11.174;2024-02-14T10:36:34;2.80;;;1.70;;
6177;SDS011;3122;48.208;11.174;2024-02-14T10:41:36;2.00;;;1.67;;
6177;SDS011;3122;48.208;11.174;2024-02-14T10:46:37;1.97;;;1.77;;
6177;SDS011;3122;48.208;11.174;2024-02-14T10:51:39;2.50;;;1.33;;
6177;SDS011;3122;48.208;11.174;2024-02-14T10:56:43;2.47;;;1.97;;
6177;SDS011;3122;48.208;11.174;2024-02-14T11:01:48;1.37;;;1.27;;
6177;SDS011;3122;48.208;11.174;2024-02-14T11:06:52;1.70;;;1.47;;
6177;SDS011;3122;48.208;11.174;2024-02-14T11:12:01;1.40;;;1.30;;
6177;SDS011;3122;48.208;11.174;2024-02-14T11:17:02;2.80;;;1.63;;
6177;SDS011;3122;48.208;11.174;2024-02-14T11:22:13;2.40;;;1.67;;
6177;SDS011;3122;48.208;11.174;2024-02-14T11:27:17;5.67;;;3.20;;
6177;SDS011;3122;48.208;11.174;2024-02-14T11:32:21;2.50;;;2.10;;
6177;SDS011;3122;48.208;11.174;2024-02-14T11:37:28;1.40;;;1.33;;
6177;SDS011;3122;48.208;11.174;2024-02-14T11:42:29;5.53;;;1.47;;
6177;SDS011;3122;48.208;11.174;2024-02-14T11:47:31;1.30;;;1.20;;
6177;SDS011;3122;48.208;11.174;2024-02-14T11:52:32;1.63;;;1.30;;
6177;SDS011;3122;48.208;11.174;2024-02-14T11:57:33;1.10;;;1.10;;
6177;SDS011;3122;48.208;11.174;2024-02-14T12:02:38;1.90;;;1.40;;
6177;SDS011;3122;48.208;11.174;2024-02-14T12:07:38;1.27;;;1.17;;
6177;SDS011;3122;48.208;11.174;2024-02-14T12:12:39;5.23;;;1.40;;
6177;SDS011;3122;48.208;11.174;2024-02-14T12:17:40;1.57;;;1.47;;
6177;SDS011;3122;48.208;11.174;2024-02-14T12:22:41;1.40;;;1.30;;
6177;SDS011;3122;48.208;11.174;2024-02-14T12:27:42;2.00;;;1.40;;
6177;SDS011;3122;48.208;11.174;2024-02-14T12:32:59;1.47;;;1.37;;
6177;SDS011;3122;48.208;11.174;2024-02-14T12:38:01;2.90;;;2.70;;
6177;SDS011;3122;48.208;11.174;2024-02-14T12:43:02;1.63;;;1.37;;
6177;SDS011;3122;48.208;11.174;2024-02-14T12:48:02;1.73;;;1.27;;
6177;SDS011;3122;48.208;11.174;2024-02-14T12:53:04;1.27;;;1.17;;
6177;SDS011;3122;48.208;11.174;2024-02-14T12:58:05;1.13;;;1.10;;
6177;SDS011;3122;48.208;11.174;2024-02-14T13:03:05;1.87;;;1.30;;
6177;SDS011;3122;48.208;11.174;2024-02-14T13:08:06;1.10;;;1.10;;
6177;SDS011;3122;48.208;11.174;2024-02-14T13:13:09;2.70;;;0.90;;
6177;SDS011;3122;48.208;11.174;2024-02-14T13:18:10;1.50;;;1.20;;
6177;SDS011;3122;48.208;11.174;2024-02-14T13:23:11;1.13;;;1.03;;
6177;SDS011;3122;48.208;11.174;2024-02-14T13:28:11;1.23;;;1.20;;
6177;SDS011;3122;48.208;11.174;2024-02-14T13:33:15;1.63;;;1.53;;
6177;SDS011;3122;48.208;11.174;2024-02-14T13:38:15;1.33;;;1.23;;
6177;SDS011;3122;48.208;11.174;2024-02-14T13:43:17;3.83;;;1.30;;
6177;SDS011;3122;48.208;11.174;2024-02-14T13:48:18;3.50;;;1.73;;
6177;SDS011;3122;48.208;11.174;2024-02-14T13:53:19;3.20;;;1.47;;
6177;SDS011;3122;48.208;11.174;2024-02-14T13:58:22;1.40;;;1.30;;
6177;SDS011;3122;48.208;11.174;2024-02-14T14:03:23;1.70;;;1.60;;
6177;SDS011;3122;48.208;11.174;2024-02-14T14:08:23;2.23;;;1.67;;
6177;SDS011;3122;48.208;11.174;2024-02-14T14:13:24;1.90;;;1.80;;
6177;SDS011;3122;48.208;11.174;2024-02-14T14:18:29;1.50;;;1.40;;
6177;SDS011;3122;48.208;11.174;2024-02-14T14:23:29;1.30;;;1.20;;
6177;SDS011;3122;48.208;11.174;2024-02-14T14:28:30;1.80;;;1.27;;
6177;SDS011;3122;48.208;11.174;2024-02-14T14:33:32;1.50;;;1.40;;
6177;SDS011;3122;48.208;11.174;2024-02-14T14:38:32;1.60;;;1.50;;
6177;SDS011;3122;48.208;11.174;2024-02-14T14:43:33;2.40;;;1.60;;
6177;SDS011;3122;48.208;11.174;2024-02-14T14:48:34;1.30;;;1.20;;
6177;SDS011;3122;48.208;11.174;2024-02-14T14:53:34;3.07;;;1.50;;
6177;SDS011;3122;48.208;11.174;2024-02-14T14:58:35;2.73;;;1.70;;
6177;SDS011;3122;48.208;11.174;2024-02-14T15:03:36;1.57;;;1.47;;
6177;SDS011;3122;48.208;11.174;2024-02-14T15:08:37;3.17;;;2.53;;
6177;SDS011;3122;48.208;11.174;2024-02-14T15:13:38;3.17;;;2.40;;
6177;SDS011;3122;48.208;11.174;2024-02-14T15:18:38;5.67;;;3.33;;
6177;SDS011;3122;48.208;11.174;2024-02-14T15:23:41;5.27;;;2.70;;
6177;SDS011;3122;48.208;11.174;2024-02-14T15:28:42;2.93;;;2.20;;
6177;SDS011;3122;48.208;11.174;2024-02-14T15:33:45;1.50;;;1.40;;
6177;SDS011;3122;48.208;11.174;2024-02-14T15:38:45;9.63;;;3.70;;
6177;SDS011;3122;48.208;11.174;2024-02-14T15:43:46;5.80;;;3.20;;
6177;SDS011;3122;48.208;11.174;2024-02-14T15:48:47;6.67;;;2.27;;
6177;SDS011;3122;48.208;11.174;2024-02-14T15:53:47;2.17;;;1.80;;
6177;SDS011;3122;48.208;11.174;2024-02-14T15:58:48;3.63;;;1.90;;
6177;SDS011;3122;48.208;11.174;2024-02-14T16:03:49;2.50;;;2.17;;
6177;SDS011;3122;48.208;11.174;2024-02-14T16:08:50;3.00;;;2.23;;
6177;SDS011;3122;48.208;11.174;2024-02-14T16:13:52;4.73;;;2.83;;
6177;SDS011;3122;48.208;11.174;2024-02-14T16:18:53;3.50;;;3.20;;
6177;SDS011;3122;48.208;11.174;2024-02-14T16:23:54;6.00;;;4.40;;
6177;SDS011;3122;48.208;11.174;2024-02-14T16:28:55;3.10;;;2.20;;
6177;SDS011;3122;48.208;11.174;2024-02-14T16:33:55;1.60;;;1.47;;
6177;SDS011;3122;48.208;11.174;2024-02-14T16:38:56;1.70;;;1.60;;
6177;SDS011;3122;48.208;11.174;2024-02-14T16:43:56;2.60;;;2.50;;
6177;SDS011;3122;48.208;11.174;2024-02-14T16:48:57;3.13;;;2.83;;
6177;SDS011;3122;48.208;11.174;2024-02-14T16:53:58;3.47;;;2.50;;
6177;SDS011;3122;48.208;11.174;2024-02-14T16:58:59;2.07;;;1.70;;
6177;SDS011;3122;48.208;11.174;2024-02-14T17:03:59;1.50;;;1.40;;
6177;SDS011;3122;48.208;11.174;2024-02-14T17:09:01;1.60;;;1.50;;
6177;SDS011;3122;48.208;11.174;2024-02-14T17:14:03;4.57;;;2.40;;
6177;SDS011;3122;48.208;11.174;2024-02-14T17:19:07;3.03;;;2.73;;
6177;SDS011;3122;48.208;11.174;2024-02-14T17:24:08;4.00;;;2.70;;
6177;SDS011;3122;48.208;11.174;2024-02-14T17:29:08;2.33;;;2.20;;
6177;SDS011;3122;48.208;11.174;2024-02-14T17:34:10;4.23;;;3.03;;
6177;SDS011;3122;48.208;11.174;2024-02-14T17:39:11;4.97;;;2.00;;
6177;SDS011;3122;48.208;11.174;2024-02-14T17:44:11;2.57;;;2.10;;
6177;SDS011;3122;48.208;11.174;2024-02-14T17:49:12;1.70;;;1.60;;
6177;SDS011;3122;48.208;11.174;2024-02-14T17:54:14;2.50;;;2.30;;
6177;SDS011;3122;48.208;11.174;2024-02-14T17:59:15;3.00;;;2.20;;
6177;SDS011;3122;48.208;11.174;2024-02-14T18:04:15;2.63;;;2.40;;
6177;SDS011;3122;48.208;11.174;2024-02-14T18:09:17;2.75;;;2.40;;
6177;SDS011;3122;48.208;11.174;2024-02-14T18:14:17;3.50;;;3.20;;
6177;SDS011;3122;48.208;11.174;2024-02-14T18:19:18;4.10;;;3.40;;
6177;SDS011;3122;48.208;11.174;2024-02-14T18:24:19;6.87;;;4.97;;
6177;SDS011;3122;48.208;11.174;2024-02-14T18:29:19;6.40;;;5.00;;
6177;SDS011;3122;48.208;11.174;2024-02-14T18:34:20;6.27;;;4.13;;
6177;SDS011;3122;48.208;11.174;2024-02-14T18:39:20;3.80;;;3.50;;
6177;SDS011;3122;48.208;11.174;2024-02-14T18:44:21;4.83;;;3.70;;
6177;SDS011;3122;48.208;11.174;2024-02-14T18:49:22;31.03;;;18.63;;
6177;SDS011;3122;48.208;11.174;2024-02-14T18:54:23;34.90;;;19.23;;
6177;SDS011;3122;48.208;11.174;2024-02-14T18:59:24;25.57;;;15.40;;
6177;SDS011;3122;48.208;11.174;2024-02-14T19:04:25;39.10;;;21.20;;
6177;SDS011;3122;48.208;11.174;2024-02-14T19:09:26;16.27;;;10.50;;
6177;SDS011;3122;48.208;11.174;2024-02-14T19:14:28;9.00;;;7.00;;
6177;SDS011;3122;48.208;11.174;2024-02-14T19:19:29;7.70;;;6.15;;
6177;SDS011;3122;48.208;11.174;2024-02-14T19:24:31;7.27;;;4.50;;
6177;SDS011;3122;48.208;11.174;2024-02-14T19:29:32;5.47;;;3.70;;
6177;SDS011;3122;48.208;11.174;2024-02-14T19:34:34;11.07;;;6.23;;
6177;SDS011;3122;48.208;11.174;2024-02-14T19:39:34;12.60;;;7.97;;
6177;SDS011;3122;48.208;11.174;2024-02-14T19:44:35;19.50;;;9.83;;
6177;SDS011;3122;48.208;11.174;2024-02-14T19:49:36;13.57;;;9.53;;
6177;SDS011;3122;48.208;11.174;2024-02-14T19:54:37;10.20;;;7.80;;
6177;SDS011;3122;48.208;11.174;2024-02-14T19:59:37;13.50;;;9.07;;
6177;SDS011;3122;48.208;11.174;2024-02-14T20:04:38;9.80;;;7.60;;
6177;SDS011;3122;48.208;11.174;2024-02-14T20:09:38;14.20;;;9.97;;
6177;SDS011;3122;48.208;11.174;2024-02-14T20:14:40;17.83;;;11.13;;
6177;SDS011;3122;48.208;11.174;2024-02-14T20:19:40;11.53;;;8.80;;
6177;SDS011;3122;48.208;11.174;2024-02-14T20:24:42;5.63;;;5.03;;
6177;SDS011;3122;48.208;11.174;2024-02-14T20:29:42;5.10;;;4.40;;
6177;SDS011;3122;48.208;11.174;2024-02-14T20:34:43;6.13;;;4.47;;
6177;SDS011;3122;48.208;11.174;2024-02-14T20:39:46;5.90;;;4.53;;
6177;SDS011;3122;48.208;11.174;2024-02-14T20:44:47;5.77;;;5.20;;
6177;SDS011;3122;48.208;11.174;2024-02-14T20:49:47;5.00;;;4.50;;
6177;SDS011;3122;48.208;11.174;2024-02-14T20:54:48;4.63;;;4.23;;
6177;SDS011;3122;48.208;11.174;2024-02-14T20:59:49;5.87;;;4.10;;
6177;SDS011;3122;48.208;11.174;2024-02-14T21:04:49;5.17;;;4.10;;
6177;SDS011;3122;48.208;11.174;2024-02-14T21:09:50;3.20;;;2.90;;
6177;SDS011;3122;48.208;11.174;2024-02-14T21:14:51;3.33;;;3.03;;
6177;SDS011;3122;48.208;11.174;2024-02-14T21:19:51;5.60;;;4.30;;
6177;SDS011;3122;48.208;11.174;2024-02-14T21:24:52;6.23;;;4.10;;
6177;SDS011;3122;48.208;11.174;2024-02-14T21:29:52;5.57;;;4.00;;
6177;SDS011;3122;48.208;11.174;2024-02-14T21:34:53;4.80;;;3.63;;
6177;SDS011;3122;48.208;11.174;2024-02-14T21:39:53;5.70;;;4.00;;
6177;SDS011;3122;48.208;11.174;2024-02-14T21:44:54;4.73;;;3.20;;
6177;SDS011;3122;48.208;11.174;2024-02-14T21:49:54;3.83;;;2.83;;
6177;SDS011;3122;48.208;11.174;2024-02-14T21:54:56;3.20;;;2.57;;
6177;SDS011;3122;48.208;11.174;2024-02-14T21:59:57;3.60;;;2.17;;
6177;SDS011;3122;48.208;11.174;2024-02-14T22:04:57;3.40;;;2.60;;
6177;SDS011;3122;48.208;11.174;2024-02-14T22:09:58;4.60;;;2.80;;
6177;SDS011;3122;48.208;11.174;2024-02-14T22:14:59;3.53;;;2.90;;
6177;SDS011;3122;48.208;11.174;2024-02-14T22:19:59;3.30;;;2.90;;
6177;SDS011;3122;48.208;11.174;2024-02-14T22:25:00;3.17;;;2.87;;
6177;SDS011;3122;48.208;11.174;2024-02-14T22:30:01;2.67;;;2.47;;
6177;SDS011;3122;48.208;11.174;2024-02-14T22:35:08;2.17;;;2.03;;
6177;SDS011;3122;48.208;11.174;2024-02-14T22:40:10;2.80;;;2.03;;
6177;SDS011;3122;48.208;11.174;2024-02-14T22:45:14;1.80;;;1.70;;
6177;SDS011;3122;48.208;11.174;2024-02-14T22:50:14;2.90;;;1.70;;
6177;SDS011;3122;48.208;11.174;2024-02-14T22:55:15;2.00;;;1.80;;
6177;SDS011;3122;48.208;11.174;2024-02-14T23:00:16;3.00;;;2.43;;
6177;SDS011;3122;48.208;11.174;2024-02-14T23:05:22;1.97;;;1.80;;
6177;SDS011;3122;48.208;11.174;2024-02-14T23:10:22;2.10;;;1.90;;
6177;SDS011;3122;48.208;11.174;2024-02-14T23:15:26;2.20;;;2.00;;
6177;SDS011;3122;48.208;11.174;2024-02-14T23:20:27;3.43;;;3.00;;
6177;SDS011;3122;48.208;11.174;2024-02-14T23:25:27;2.73;;;2.20;;
6177;SDS011;3122;48.208;11.174;2024-02-14T23:30:30;2.70;;;2.40;;
6177;SDS011;3122;48.208;11.174;2024-02-14T23:35:31;3.00;;;2.60;;
6177;SDS011;3122;48.208;11.174;2024-02-14T23:40:31;2.63;;;2.43;;
6177;SDS011;3122;48.208;11.174;2024-02-14T23:45:32;3.07;;;2.67;;
6177;SDS011;3122;48.208;11.174;2024-02-14T23:50:32;2.60;;;2.37;;
6177;SDS011;3122;48.208;11.174;2024-02-14T23:55:33;3.83;;;2.77;;
